Time;durP1;ratioP1;P1;durP2;ratioP2;P2;SDS_P1;SDS_P2;PMS_P1;PMS_P2;Temp;Humidity;BMP_temperature;BMP_pressure;BME280_temperature;BME280_humidity;BME280_pressure;Samples;Min_cycle;Max_cycle;Signal;HPM_P1;HPM_P2
2022/09/06 00:00:14;;;;;;;0.20;0.20;;;;;;;23.29;41.74;95744.25;5058222;28;20581;-60
2022/09/06 00:02:42;;;;;;;0.20;0.20;;;;;;;23.37;41.68;95751.50;5038623;28;20224;-59
2022/09/06 00:05:10;;;;;;;0.13;0.13;;;;;;;23.45;41.49;95736.56;5064822;28;20733;-61
2022/09/06 00:07:37;;;;;;;0.30;0.30;;;;;;;23.39;41.31;95743.94;5067212;28;20438;-59
2022/09/06 00:10:05;;;;;;;0.70;0.70;;;;;;;23.42;41.15;95742.50;5041095;28;20498;-59
2022/09/06 00:12:33;;;;;;;0.50;0.50;;;;;;;23.40;41.55;95734.00;5063455;28;20445;-61
2022/09/06 00:15:00;;;;;;;0.10;0.10;;;;;;;23.40;41.42;95729.47;5052000;28;20427;-58
2022/09/06 00:17:27;;;;;;;0.20;0.20;;;;;;;23.23;41.79;95739.34;5039780;28;20287;-59
2022/09/06 00:19:54;;;;;;;0.83;0.73;;;;;;;23.26;41.79;95741.38;5063599;28;20474;-60
2022/09/06 00:22:20;;;;;;;0.97;0.97;;;;;;;23.20;41.85;95740.75;5051755;28;20231;-61
2022/09/06 00:24:48;;;;;;;0.73;0.73;;;;;;;23.04;42.46;95743.13;5072091;28;20260;-58
2022/09/06 00:27:15;;;;;;;1.33;0.73;;;;;;;23.13;41.87;95735.91;5046521;28;20581;-60
2022/09/06 00:29:41;;;;;;;0.53;0.53;;;;;;;23.03;42.11;95736.19;5053911;28;20487;-60
2022/09/06 00:32:08;;;;;;;0.80;0.67;;;;;;;23.10;41.91;95739.16;5071554;28;20449;-60
2022/09/06 00:34:35;;;;;;;0.10;0.10;;;;;;;23.13;42.11;95738.56;5065525;28;20436;-60
2022/09/06 00:37:02;;;;;;;0.10;0.10;;;;;;;22.97;42.14;95737.44;5050428;28;20196;-58
2022/09/06 00:39:29;;;;;;;0.60;0.60;;;;;;;22.91;42.33;95733.34;5042007;28;20792;-60
2022/09/06 00:41:56;;;;;;;0.70;0.70;;;;;;;22.88;42.63;95733.19;5051576;28;20952;-58
2022/09/06 00:44:23;;;;;;;0.70;0.60;;;;;;;22.92;42.21;95729.56;5064968;28;21069;-59
2022/09/06 00:46:52;;;;;;;1.00;0.57;;;;;;;22.83;42.51;95731.44;5043113;28;20438;-62
2022/09/06 00:49:35;;;;;;;4.47;0.63;;;;;;;22.80;42.17;95732.06;5071713;28;20541;-61
2022/09/06 00:52:08;;;;;;;0.20;0.20;;;;;;;22.54;43.09;95736.53;5043609;28;20196;-60
2022/09/06 00:54:36;;;;;;;0.30;0.30;;;;;;;22.66;42.79;95728.72;5071381;28;20445;-60
2022/09/06 00:57:03;;;;;;;0.37;0.37;;;;;;;22.74;42.74;95727.97;5037529;28;20501;-60
2022/09/06 00:59:33;;;;;;;0.30;0.30;;;;;;;22.88;42.12;95730.50;5059246;28;20477;-61
2022/09/06 01:02:00;;;;;;;0.50;0.50;;;;;;;22.92;41.95;95734.91;5056818;28;20454;-59
2022/09/06 01:04:48;;;;;;;0.30;0.30;;;;;;;23.05;41.99;95739.34;5052106;28;20637;-59
2022/09/06 01:07:39;;;;;;;0.63;0.63;;;;;;;23.16;41.56;95744.38;5062748;28;21010;-61
2022/09/06 01:10:30;;;;;;;0.40;0.40;;;;;;;22.73;42.74;95741.66;5071003;28;20443;-62
2022/09/06 01:13:19;;;;;;;10.93;1.00;;;;;;;22.99;42.29;95740.56;5045280;28;20533;-58
2022/09/06 01:16:19;;;;;;;0.20;0.20;;;;;;;22.86;42.54;95741.50;5069500;28;20315;-57
2022/09/06 01:18:46;;;;;;;0.30;0.30;;;;;;;22.48;43.25;95745.78;5052034;28;20529;-58
2022/09/06 01:21:27;;;;;;;0.30;0.30;;;;;;;22.64;42.94;95743.50;5060742;28;20436;-62
2022/09/06 01:24:00;;;;;;;0.63;0.63;;;;;;;22.74;42.60;95738.66;5044107;28;20623;-61
2022/09/06 01:26:55;;;;;;;0.57;0.57;;;;;;;22.62;43.30;95743.81;5037595;28;20447;-60
2022/09/06 01:29:31;;;;;;;0.20;0.20;;;;;;;22.31;43.67;95739.59;5052538;28;20497;-60
2022/09/06 01:32:39;;;;;;;0.10;0.10;;;;;;;22.61;42.90;95736.88;5061093;28;20191;-57
2022/09/06 01:35:25;;;;;;;2.67;1.27;;;;;;;22.60;43.17;95732.66;5054928;28;20430;-59
2022/09/06 01:37:54;;;;;;;3.00;2.53;;;;;;;22.69;42.68;95732.66;5054040;28;20451;-60
2022/09/06 01:40:21;;;;;;;0.63;0.60;;;;;;;22.60;43.24;95732.66;5059038;28;20542;-58
2022/09/06 01:42:49;;;;;;;0.20;0.20;;;;;;;22.49;43.43;95728.66;5040375;28;20519;-58
2022/09/06 01:45:26;;;;;;;0.37;0.37;;;;;;;22.48;43.47;95732.41;5037697;28;20447;-59
2022/09/06 01:48:09;;;;;;;0.40;0.40;;;;;;;22.35;43.54;95722.66;5036225;28;20459;-61
2022/09/06 01:50:56;;;;;;;0.60;0.60;;;;;;;22.63;43.23;95715.19;5052169;28;20964;-57
2022/09/06 01:53:49;;;;;;;0.37;0.37;;;;;;;22.70;42.82;95710.22;5064043;28;20446;-58
2022/09/06 01:56:36;;;;;;;0.30;0.30;;;;;;;22.58;43.10;95716.16;5057257;28;20450;-61
2022/09/06 01:59:19;;;;;;;0.20;0.20;;;;;;;22.09;43.92;95714.53;5052510;28;20476;-61
2022/09/06 02:02:07;;;;;;;0.20;0.20;;;;;;;22.28;43.84;95711.63;5068567;28;20438;-57
2022/09/06 02:04:36;;;;;;;0.30;0.30;;;;;;;22.19;43.67;95716.13;5030508;28;20502;-61
2022/09/06 02:07:14;;;;;;;0.33;0.33;;;;;;;22.39;43.68;95707.56;5058116;28;20891;-61
2022/09/06 02:09:45;;;;;;;0.23;0.23;;;;;;;22.45;43.58;95698.31;5045603;28;20218;-63
2022/09/06 02:12:15;;;;;;;1.40;0.83;;;;;;;22.52;43.14;95701.31;5068671;28;20554;-59
2022/09/06 02:14:48;;;;;;;1.90;0.67;;;;;;;22.53;43.16;95700.25;5057029;28;20446;-61
2022/09/06 02:17:22;;;;;;;0.87;0.80;;;;;;;22.38;43.41;95702.53;5069423;28;20975;-60
2022/09/06 02:20:15;;;;;;;0.20;0.20;;;;;;;22.41;43.43;95708.03;5062141;28;20585;-61
2022/09/06 02:22:45;;;;;;;0.30;0.30;;;;;;;22.54;43.04;95691.13;5046540;28;20448;-59
2022/09/06 02:25:21;;;;;;;0.30;0.30;;;;;;;22.49;42.98;95699.28;5049252;28;20453;-60
2022/09/06 02:27:48;;;;;;;1.33;0.73;;;;;;;22.35;43.68;95703.97;5055595;28;20440;-61
2022/09/06 02:30:16;;;;;;;0.30;0.30;;;;;;;22.35;43.27;95701.28;5069438;28;20945;-58
2022/09/06 02:32:49;;;;;;;1.50;0.47;;;;;;;22.35;43.43;95709.31;5041404;28;20478;-60
2022/09/06 02:35:16;;;;;;;0.40;0.40;;;;;;;22.27;43.35;95704.72;5061175;28;20451;-58
2022/09/06 02:37:43;;;;;;;0.53;0.53;;;;;;;22.26;43.87;95700.47;5064200;28;20438;-60
2022/09/06 02:40:11;;;;;;;0.10;0.10;;;;;;;22.28;43.93;95710.84;5055103;28;20225;-59
2022/09/06 02:42:39;;;;;;;0.43;0.43;;;;;;;22.01;44.33;95704.59;5056193;28;20467;-59
2022/09/06 02:45:06;;;;;;;0.97;0.53;;;;;;;22.12;43.87;95707.78;5049767;28;20541;-60
2022/09/06 02:47:33;;;;;;;0.43;0.43;;;;;;;22.11;44.25;95717.69;5055423;28;20436;-58
2022/09/06 02:50:00;;;;;;;0.60;0.60;;;;;;;22.02;44.37;95721.41;5039421;28;20466;-61
2022/09/06 02:52:27;;;;;;;0.27;0.27;;;;;;;21.93;44.63;95724.03;5048404;28;20450;-59
2022/09/06 02:54:54;;;;;;;0.20;0.20;;;;;;;21.89;44.82;95722.28;5055038;28;20483;-59
2022/09/06 02:57:20;;;;;;;0.70;0.70;;;;;;;21.90;44.60;95713.16;5037039;28;20497;-60
2022/09/06 02:59:47;;;;;;;0.10;0.10;;;;;;;22.09;44.04;95716.41;5038725;28;20472;-61
2022/09/06 03:02:14;;;;;;;1.63;1.53;;;;;;;22.19;43.81;95721.47;5059383;28;20941;-58
2022/09/06 03:04:41;;;;;;;0.57;0.50;;;;;;;21.92;44.60;95716.31;5058168;28;20442;-63
2022/09/06 03:07:08;;;;;;;0.40;0.40;;;;;;;22.08;44.25;95714.81;5053245;28;20450;-60
2022/09/06 03:09:35;;;;;;;0.10;0.10;;;;;;;21.83;44.43;95718.97;5044608;28;20487;-62
2022/09/06 03:12:02;;;;;;;0.83;0.70;;;;;;;21.93;44.44;95709.91;5059968;28;20457;-60
2022/09/06 03:14:29;;;;;;;0.30;0.30;;;;;;;22.00;44.18;95715.59;5047421;28;20439;-60
2022/09/06 03:16:56;;;;;;;0.37;0.37;;;;;;;21.69;45.13;95712.09;5056726;28;21012;-59
2022/09/06 03:19:23;;;;;;;3.10;1.27;;;;;;;21.65;45.12;95721.78;5058665;28;20487;-61
2022/09/06 03:21:50;;;;;;;1.20;1.00;;;;;;;21.71;45.02;95715.25;5073194;28;20507;-62
2022/09/06 03:24:17;;;;;;;0.73;0.70;;;;;;;21.73;44.60;95718.41;5058751;28;20524;-60
2022/09/06 03:26:43;;;;;;;0.93;0.67;;;;;;;21.75;44.87;95721.56;5064780;28;20496;-60
2022/09/06 03:29:10;;;;;;;0.50;0.40;;;;;;;21.66;45.03;95723.38;5067089;28;20452;-58
2022/09/06 03:31:37;;;;;;;0.33;0.33;;;;;;;21.65;45.03;95721.78;5066346;28;20851;-60
2022/09/06 03:34:04;;;;;;;0.10;0.10;;;;;;;21.52;45.06;95723.44;5052675;28;20444;-57
2022/09/06 03:36:36;;;;;;;0.40;0.40;;;;;;;21.56;44.94;95728.97;5058172;28;20438;-59
2022/09/06 03:39:03;;;;;;;2.37;2.10;;;;;;;21.61;44.80;95731.50;5061000;28;20446;-58
2022/09/06 03:41:30;;;;;;;0.40;0.40;;;;;;;21.44;44.98;95731.41;5062916;28;20535;-62
2022/09/06 03:43:57;;;;;;;0.57;0.53;;;;;;;21.41;45.37;95732.78;5042122;28;20470;-60
2022/09/06 03:46:24;;;;;;;0.33;0.33;;;;;;;21.37;45.68;95737.13;5068815;28;20445;-61
2022/09/06 03:48:50;;;;;;;0.67;0.67;;;;;;;21.51;45.36;95737.09;5064169;28;20462;-58
2022/09/06 03:51:17;;;;;;;0.00;0.00;;;;;;;21.42;45.53;95736.25;5038760;28;20440;-59
2022/09/06 03:53:44;;;;;;;0.23;0.23;;;;;;;21.34;45.48;95737.75;5032463;28;20447;-61
2022/09/06 03:56:11;;;;;;;1.13;1.03;;;;;;;21.35;45.27;95739.31;5038972;28;20542;-58
2022/09/06 03:58:38;;;;;;;0.40;0.40;;;;;;;21.17;45.74;95736.84;5048480;28;20513;-59
2022/09/06 04:01:10;;;;;;;0.10;0.10;;;;;;;21.20;45.63;95744.22;5056651;28;20540;-59
2022/09/06 04:03:37;;;;;;;0.40;0.33;;;;;;;21.17;46.79;95739.50;5057515;28;20475;-58
2022/09/06 04:06:05;;;;;;;0.57;0.57;;;;;;;21.42;46.12;95737.03;5062558;28;20440;-62
2022/09/06 04:08:34;;;;;;;0.10;0.10;;;;;;;21.52;45.65;95741.31;5055052;28;20529;-61
2022/09/06 04:11:01;;;;;;;0.27;0.27;;;;;;;21.14;46.53;95744.34;5044039;28;20445;-60
2022/09/06 04:13:28;;;;;;;0.80;0.80;;;;;;;21.02;46.93;95751.28;5062268;28;20446;-62
2022/09/06 04:15:56;;;;;;;0.80;0.80;;;;;;;21.39;46.07;95750.16;5065858;28;20534;-60
2022/09/06 04:18:23;;;;;;;0.83;0.83;;;;;;;21.44;45.66;95748.16;5043769;28;20448;-62
2022/09/06 04:20:52;;;;;;;1.83;0.70;;;;;;;21.45;45.35;95743.63;5045843;28;20497;-59
2022/09/06 04:23:19;;;;;;;0.10;0.10;;;;;;;21.62;45.19;95744.53;5045430;28;20451;-61
2022/09/06 04:25:47;;;;;;;0.57;0.57;;;;;;;21.49;45.58;95744.59;5044766;28;20516;-58
2022/09/06 04:28:17;;;;;;;0.47;0.47;;;;;;;21.34;45.77;95736.94;5066020;28;20447;-58
2022/09/06 04:30:55;;;;;;;0.50;0.50;;;;;;;21.32;45.81;95744.47;5051612;28;20451;-60
2022/09/06 04:33:25;;;;;;;0.40;0.40;;;;;;;21.33;45.96;95743.38;5065286;28;20809;-58
2022/09/06 04:35:55;;;;;;;0.30;0.30;;;;;;;21.33;45.90;95738.06;5063747;28;20497;-61
2022/09/06 04:38:22;;;;;;;0.30;0.30;;;;;;;21.42;45.40;95734.38;5039012;28;20442;-61
2022/09/06 04:40:49;;;;;;;0.27;0.27;;;;;;;21.48;45.76;95743.00;5051416;28;20483;-59
2022/09/06 04:43:17;;;;;;;1.30;0.93;;;;;;;21.51;45.58;95747.75;5036768;28;20843;-58
2022/09/06 04:45:44;;;;;;;0.80;0.80;;;;;;;21.42;45.55;95742.38;5042349;28;20626;-58
2022/09/06 04:48:11;;;;;;;0.37;0.37;;;;;;;21.53;45.94;95748.25;5047202;28;20457;-60
2022/09/06 04:50:38;;;;;;;0.73;0.73;;;;;;;21.58;45.73;95740.13;5042931;28;20442;-62
2022/09/06 04:53:05;;;;;;;0.30;0.30;;;;;;;21.60;45.71;95745.94;5059154;28;20450;-59
2022/09/06 04:55:33;;;;;;;1.43;1.17;;;;;;;21.44;45.73;95744.72;5030759;28;20435;-59
2022/09/06 04:58:00;;;;;;;0.10;0.10;;;;;;;21.49;46.16;95740.06;5034978;28;20950;-62
2022/09/06 05:00:29;;;;;;;0.30;0.30;;;;;;;21.04;47.13;95749.88;5071148;28;20996;-60
2022/09/06 05:02:56;;;;;;;0.20;0.20;;;;;;;21.37;45.95;95741.69;5044156;28;20501;-59
2022/09/06 05:05:23;;;;;;;0.10;0.10;;;;;;;21.23;46.37;95746.28;5040961;28;20455;-58
2022/09/06 05:07:51;;;;;;;0.20;0.20;;;;;;;21.33;46.48;95740.72;5060229;28;20444;-61
2022/09/06 05:10:19;;;;;;;0.60;0.57;;;;;;;21.45;46.29;95739.09;5049230;28;20478;-62
2022/09/06 05:12:48;;;;;;;1.37;0.73;;;;;;;21.74;45.81;95735.97;5054636;28;20596;-60
2022/09/06 05:15:17;;;;;;;0.60;0.60;;;;;;;21.65;46.01;95741.25;5061253;28;20439;-59
2022/09/06 05:17:43;;;;;;;0.23;0.23;;;;;;;21.61;46.53;95731.50;5063151;28;20438;-61
2022/09/06 05:20:11;;;;;;;1.50;0.87;;;;;;;21.56;46.36;95736.97;5036663;28;20467;-59
2022/09/06 05:22:39;;;;;;;0.57;0.57;;;;;;;21.45;47.14;95733.75;5062811;28;20854;-59
2022/09/06 05:25:08;;;;;;;0.43;0.43;;;;;;;21.06;47.39;95741.56;5041477;28;20446;-60
2022/09/06 05:27:35;;;;;;;1.77;1.13;;;;;;;21.26;46.96;95721.69;5069262;28;21171;-61
2022/09/06 05:30:03;;;;;;;0.80;0.80;;;;;;;21.14;47.32;95731.00;5060639;28;20435;-59
2022/09/06 05:32:30;;;;;;;0.30;0.30;;;;;;;20.94;48.08;95728.75;5038970;28;20542;-61
2022/09/06 05:34:56;;;;;;;0.50;0.50;;;;;;;21.53;46.60;95729.56;5032714;28;20436;-58
2022/09/06 05:37:23;;;;;;;0.73;0.73;;;;;;;21.50;47.09;95740.81;5038299;28;20469;-61
2022/09/06 05:39:50;;;;;;;0.60;0.60;;;;;;;22.00;46.37;95735.06;5048426;28;20478;-61
2022/09/06 05:42:18;;;;;;;1.07;1.07;;;;;;;22.00;45.69;95736.94;5035865;28;20457;-62
2022/09/06 05:44:45;;;;;;;3.17;1.70;;;;;;;22.11;45.90;95740.94;5029852;28;20502;-59
2022/09/06 05:47:12;;;;;;;2.27;2.07;;;;;;;22.26;44.90;95739.72;5031114;28;20452;-61
2022/09/06 05:49:40;;;;;;;1.77;1.43;;;;;;;22.17;45.26;95739.69;5036983;28;20700;-59
2022/09/06 05:52:09;;;;;;;0.63;0.63;;;;;;;22.16;45.40;95738.13;5019571;28;20443;-61
2022/09/06 05:54:35;;;;;;;0.47;0.47;;;;;;;22.39;45.54;95731.59;5031429;28;20953;-61
2022/09/06 05:57:03;;;;;;;0.73;0.73;;;;;;;22.50;45.32;95730.22;5029224;28;21091;-60
2022/09/06 05:59:30;;;;;;;0.33;0.27;;;;;;;22.59;45.24;95731.06;5061319;28;20445;-59
2022/09/06 06:01:56;;;;;;;0.60;0.60;;;;;;;22.30;45.52;95728.13;5031882;28;20462;-61
2022/09/06 06:04:23;;;;;;;0.20;0.20;;;;;;;22.11;46.15;95724.91;5040232;28;21420;-61
2022/09/06 06:06:51;;;;;;;1.53;0.80;;;;;;;21.64;46.45;95730.91;5040375;28;20447;-60
2022/09/06 06:09:18;;;;;;;0.90;0.90;;;;;;;21.66;47.14;95728.72;5030746;28;20450;-63
2022/09/06 06:11:45;;;;;;;2.17;1.97;;;;;;;21.72;46.69;95711.47;5038524;28;20478;-59
2022/09/06 06:14:12;;;;;;;0.90;0.90;;;;;;;21.95;45.91;95721.84;5054208;28;20999;-60
2022/09/06 06:16:39;;;;;;;0.40;0.40;;;;;;;22.52;44.70;95717.34;5050566;28;20542;-59
2022/09/06 06:19:06;;;;;;;1.73;1.63;;;;;;;22.04;46.90;95708.56;5053843;28;20472;-60
2022/09/06 06:21:33;;;;;;;1.27;1.17;;;;;;;22.50;45.86;95708.84;5048090;28;20492;-60
2022/09/06 06:24:02;;;;;;;1.53;1.43;;;;;;;22.63;44.44;95704.50;5031645;28;20448;-62
2022/09/06 06:26:32;;;;;;;2.90;1.27;;;;;;;22.40;45.21;95706.47;5020154;28;20197;-61
2022/09/06 06:29:01;;;;;;;0.70;0.60;;;;;;;22.34;45.87;95713.06;5032852;28;20454;-64
2022/09/06 06:31:29;;;;;;;4.57;1.53;;;;;;;22.67;45.21;95708.94;5054095;28;20295;-59
2022/09/06 06:33:57;;;;;;;0.87;0.53;;;;;;;22.92;43.90;95708.19;5040220;28;20443;-62
2022/09/06 06:36:29;;;;;;;0.40;0.40;;;;;;;22.96;44.23;95713.69;5057750;28;21065;-59
2022/09/06 06:38:57;;;;;;;0.57;0.57;;;;;;;22.72;45.62;95703.44;5048962;28;20798;-61
2022/09/06 06:41:27;;;;;;;0.83;0.83;;;;;;;22.34;47.02;95707.72;5025431;28;20227;-63
2022/09/06 06:43:56;;;;;;;2.40;0.90;;;;;;;23.05;44.92;95707.25;5049227;28;20473;-61
2022/09/06 06:46:26;;;;;;;0.63;0.63;;;;;;;23.60;43.56;95706.63;5026998;28;20208;-57
2022/09/06 06:48:54;;;;;;;1.37;1.27;;;;;;;23.71;43.05;95707.84;5021400;28;20197;-60
2022/09/06 06:51:24;;;;;;;1.23;1.13;;;;;;;23.77;42.23;95702.03;5017888;28;20444;-61
2022/09/06 06:53:51;;;;;;;0.20;0.20;;;;;;;23.73;42.10;95711.00;5023899;28;20192;-62
2022/09/06 06:56:27;;;;;;;1.17;0.53;;;;;;;23.88;43.05;95705.16;5026295;28;20208;-62
2022/09/06 06:58:57;;;;;;;0.50;0.50;;;;;;;24.08;41.90;95710.63;5025489;28;21016;-59
2022/09/06 07:01:26;;;;;;;0.40;0.40;;;;;;;24.29;41.23;95708.00;5023478;28;20247;-60
2022/09/06 07:03:54;;;;;;;1.70;1.10;;;;;;;23.81;43.25;95705.63;5024341;28;20215;-61
2022/09/06 07:06:21;;;;;;;0.83;0.83;;;;;;;24.04;42.28;95711.59;5024670;28;20200;-58
2022/09/06 07:09:08;;;;;;;1.50;1.00;;;;;;;24.29;41.98;95705.34;5026456;28;20200;-63
2022/09/06 07:11:35;;;;;;;2.43;0.87;;;;;;;23.94;42.83;95701.97;5025264;28;20275;-63
2022/09/06 07:14:02;;;;;;;0.60;0.60;;;;;;;24.24;41.55;95692.13;5033000;28;20197;-59
2022/09/06 07:16:29;;;;;;;0.40;0.40;;;;;;;24.47;41.71;95709.50;5029400;28;20204;-58
2022/09/06 07:18:56;;;;;;;1.07;1.07;;;;;;;24.10;42.35;95700.34;5024909;28;20197;-59
2022/09/06 07:21:27;;;;;;;1.50;1.40;;;;;;;24.51;42.32;95704.28;5027278;28;20283;-61
2022/09/06 07:24:03;;;;;;;1.13;1.03;;;;;;;24.57;42.20;95709.16;5023331;28;20193;-59
2022/09/06 07:26:37;;;;;;;0.73;0.73;;;;;;;24.58;41.65;95709.94;5023720;28;20276;-59
2022/09/06 07:29:06;;;;;;;10.20;4.20;;;;;;;24.48;41.66;95705.72;5021320;28;20192;-64
2022/09/06 07:31:34;;;;;;;1.10;0.93;;;;;;;25.00;40.01;95707.00;5018863;28;20674;-64
2022/09/06 07:34:23;;;;;;;1.57;1.47;;;;;;;25.17;39.79;95706.09;5018242;28;20204;-59
2022/09/06 07:36:55;;;;;;;0.40;0.40;;;;;;;24.95;40.54;95709.09;5019580;28;20213;-66
2022/09/06 07:39:22;;;;;;;0.60;0.60;;;;;;;24.74;41.50;95709.06;5036517;28;20940;-65
2022/09/06 07:41:49;;;;;;;0.87;0.87;;;;;;;24.65;40.87;95708.28;5030572;28;20258;-67
2022/09/06 07:44:16;;;;;;;0.40;0.40;;;;;;;24.79;41.13;95710.78;5047961;28;20440;-63
2022/09/06 07:46:43;;;;;;;0.63;0.63;;;;;;;25.00;40.77;95715.03;5032522;28;20247;-61
2022/09/06 07:49:10;;;;;;;1.00;0.90;;;;;;;25.40;39.63;95703.88;5046100;28;20196;-67
2022/09/06 07:51:37;;;;;;;0.50;0.50;;;;;;;25.51;39.15;95705.06;5030499;28;20197;-62
2022/09/06 07:54:05;;;;;;;0.37;0.37;;;;;;;25.39;38.65;95713.03;5058753;28;20615;-62
2022/09/06 07:56:52;;;;;;;1.20;1.10;;;;;;;25.49;39.38;95701.91;5030294;28;20266;-63
2022/09/06 07:59:19;;;;;;;1.43;1.33;;;;;;;25.12;40.50;95708.19;5049401;28;20244;-65
2022/09/06 08:01:47;;;;;;;20.60;13.23;;;;;;;25.05;40.64;95706.78;5049519;28;20216;-57
2022/09/06 08:04:14;;;;;;;1.43;1.33;;;;;;;25.92;38.43;95700.38;5029358;28;20613;-57
2022/09/06 08:06:47;;;;;;;0.83;0.83;;;;;;;26.06;37.80;95686.63;5041288;28;20254;-63
2022/09/06 08:09:34;;;;;;;0.77;0.77;;;;;;;26.00;38.11;95698.69;5050290;28;20193;-61
2022/09/06 08:12:05;;;;;;;1.30;1.10;;;;;;;25.43;38.55;95677.19;5047327;28;20630;-64
2022/09/06 08:14:33;;;;;;;0.70;0.70;;;;;;;26.23;37.72;95689.13;5038139;28;20719;-67
2022/09/06 08:17:02;;;;;;;0.50;0.50;;;;;;;26.51;37.62;95690.03;5068035;28;20196;-61
2022/09/06 08:19:29;;;;;;;0.40;0.40;;;;;;;26.30;37.64;95689.34;5059937;28;20308;-63
2022/09/06 08:21:56;;;;;;;0.70;0.70;;;;;;;26.14;36.76;95685.75;5053844;28;20219;-57
2022/09/06 08:24:22;;;;;;;0.93;0.93;;;;;;;26.77;36.15;95682.41;5070557;28;20199;-61
2022/09/06 08:26:49;;;;;;;0.50;0.50;;;;;;;26.72;36.75;95690.72;5057206;28;20253;-60
2022/09/06 08:29:17;;;;;;;5.10;0.70;;;;;;;26.52;37.13;95696.97;5047105;28;20205;-58
2022/09/06 08:31:45;;;;;;;0.70;0.70;;;;;;;27.12;35.87;95684.56;5046762;28;20648;-60
2022/09/06 08:34:13;;;;;;;2.23;2.07;;;;;;;26.59;36.64;95680.25;5040708;28;20285;-62
2022/09/06 08:36:40;;;;;;;1.33;1.27;;;;;;;26.70;36.88;95687.56;5030689;28;20296;-59
2022/09/06 08:39:08;;;;;;;1.20;0.70;;;;;;;27.13;35.88;95678.06;5039642;28;20262;-61
2022/09/06 08:41:54;;;;;;;1.07;1.07;;;;;;;26.97;36.93;95676.09;5065898;28;20249;-60
2022/09/06 08:44:38;;;;;;;0.57;0.57;;;;;;;27.59;35.10;95664.03;5060720;28;20220;-57
2022/09/06 08:47:22;;;;;;;0.60;0.60;;;;;;;27.38;35.33;95668.81;5037688;28;20646;-58
2022/09/06 08:50:05;;;;;;;1.33;1.23;;;;;;;27.18;35.54;95670.56;5049012;28;20192;-61
2022/09/06 08:52:51;;;;;;;0.30;0.30;;;;;;;27.41;33.77;95662.78;5040531;28;20208;-56
2022/09/06 08:55:46;;;;;;;3.33;0.97;;;;;;;27.15;34.88;95659.69;5028950;28;20189;-59
2022/09/06 08:58:38;;;;;;;0.40;0.40;;;;;;;27.36;35.50;95644.94;5029999;28;20199;-58
2022/09/06 09:01:13;;;;;;;0.33;0.33;;;;;;;28.37;33.67;95640.63;5029610;28;20267;-59
2022/09/06 09:03:42;;;;;;;0.20;0.20;;;;;;;28.42;32.94;95637.66;5059014;28;20200;-58
2022/09/06 09:06:10;;;;;;;0.93;0.83;;;;;;;27.99;34.03;95632.38;5061580;28;20204;-59
2022/09/06 09:09:04;;;;;;;0.47;0.47;;;;;;;27.80;33.02;95638.44;5053830;28;20560;-57
2022/09/06 09:11:34;;;;;;;0.77;0.77;;;;;;;28.10;32.79;95621.88;5041695;28;20566;-59
2022/09/06 09:14:07;;;;;;;0.83;0.83;;;;;;;28.20;32.54;95619.41;5039553;28;20668;-57
2022/09/06 09:16:34;;;;;;;2.77;0.87;;;;;;;28.11;32.89;95616.13;5040721;28;20207;-62
2022/09/06 09:19:04;;;;;;;0.63;0.63;;;;;;;27.88;34.87;95612.47;5051975;28;20284;-62
2022/09/06 09:21:33;;;;;;;0.30;0.30;;;;;;;27.85;33.25;95610.44;5041066;28;20263;-60
2022/09/06 09:24:04;;;;;;;0.57;0.57;;;;;;;28.37;33.03;95602.88;5058392;28;20262;-58
2022/09/06 09:26:43;;;;;;;0.30;0.30;;;;;;;28.69;32.09;95609.78;5040735;28;20228;-57
2022/09/06 09:29:12;;;;;;;0.90;0.80;;;;;;;28.98;31.60;95601.13;5026866;28;20200;-57
2022/09/06 09:31:48;;;;;;;0.50;0.50;;;;;;;28.91;31.64;95595.59;5040764;28;20208;-54
2022/09/06 09:34:46;;;;;;;0.70;0.70;;;;;;;29.28;30.97;95589.78;5054536;28;20209;-57
2022/09/06 09:37:24;;;;;;;0.80;0.80;;;;;;;29.04;32.25;95590.06;5027048;28;20531;-55
2022/09/06 09:40:24;;;;;;;0.17;0.17;;;;;;;29.07;30.97;95586.66;5039432;28;20199;-56
2022/09/06 09:42:53;;;;;;;3.13;1.33;;;;;;;29.39;31.60;95580.75;5056994;28;20231;-59
2022/09/06 09:45:30;;;;;;;0.33;0.33;;;;;;;29.76;31.32;95581.06;5030753;28;20719;-56
2022/09/06 09:48:15;;;;;;;0.97;0.70;;;;;;;29.82;31.07;95576.88;5041807;28;20728;-57
2022/09/06 09:50:42;;;;;;;0.83;0.83;;;;;;;29.71;30.60;95578.63;5042330;28;20320;-56
2022/09/06 09:53:13;;;;;;;0.73;0.73;;;;;;;29.74;29.76;95583.34;5049999;28;20195;-57
2022/09/06 09:55:41;;;;;;;0.47;0.47;;;;;;;30.17;29.82;95585.56;5035970;28;20201;-56
2022/09/06 09:58:23;;;;;;;3.13;2.53;;;;;;;30.24;30.26;95582.19;5042243;28;20198;-61
2022/09/06 10:01:08;;;;;;;0.93;0.93;;;;;;;30.49;29.18;95570.63;5060156;28;20298;-65
2022/09/06 10:03:36;;;;;;;0.53;0.53;;;;;;;30.63;29.27;95560.00;5060593;28;20303;-59
2022/09/06 10:06:26;;;;;;;0.60;0.60;;;;;;;30.18;28.64;95559.31;5029057;28;20198;-62
2022/09/06 10:09:17;;;;;;;0.30;0.30;;;;;;;31.02;27.98;95559.75;5061698;28;20204;-56
2022/09/06 10:11:54;;;;;;;1.23;0.70;;;;;;;30.53;28.79;95557.91;5057093;28;20189;-59
2022/09/06 10:14:26;;;;;;;0.40;0.40;;;;;;;30.51;29.99;95549.38;5042264;28;20204;-56
2022/09/06 10:16:53;;;;;;;0.80;0.80;;;;;;;30.41;29.81;95552.75;5042650;28;20863;-58
2022/09/06 10:19:40;;;;;;;0.90;0.73;;;;;;;30.46;28.69;95555.13;5043827;28;20263;-60
2022/09/06 10:22:27;;;;;;;1.23;1.13;;;;;;;30.25;29.21;95554.81;5028615;28;20602;-58
2022/09/06 10:25:31;;;;;;;10.90;6.33;;;;;;;30.23;29.81;95551.69;5059179;28;20246;-58
2022/09/06 10:28:07;;;;;;;7.07;2.37;;;;;;;30.78;28.42;95550.91;5062592;28;20203;-60
2022/09/06 10:30:54;;;;;;;2.20;0.80;;;;;;;30.10;28.88;95544.13;5035929;28;20686;-61
2022/09/06 10:33:50;;;;;;;0.37;0.37;;;;;;;30.48;28.05;95543.94;5034349;28;20204;-59
2022/09/06 10:36:27;;;;;;;0.67;0.67;;;;;;;30.92;28.10;95544.91;5035988;28;20201;-61
2022/09/06 10:39:02;;;;;;;0.60;0.53;;;;;;;29.88;28.76;95538.41;5034832;28;20253;-57
2022/09/06 10:41:48;;;;;;;3.30;2.03;;;;;;;29.94;27.16;95533.47;5027813;28;20228;-59
2022/09/06 10:44:29;;;;;;;0.87;0.87;;;;;;;29.09;28.41;95530.41;5027654;28;20232;-58
2022/09/06 10:47:09;;;;;;;0.60;0.60;;;;;;;29.83;28.26;95527.91;5027786;28;20296;-63
2022/09/06 10:49:39;;;;;;;0.57;0.57;;;;;;;29.75;28.62;95536.25;5026685;28;20913;-58
2022/09/06 10:52:10;;;;;;;6.43;4.23;;;;;;;30.49;27.65;95530.03;5039801;28;20199;-57
2022/09/06 10:54:40;;;;;;;1.10;1.10;;;;;;;30.88;26.35;95517.81;5041764;28;20189;-59
2022/09/06 10:57:18;;;;;;;0.30;0.30;;;;;;;30.92;26.71;95508.94;5037842;28;20266;-54
2022/09/06 11:00:12;;;;;;;0.80;0.57;;;;;;;31.52;27.09;95518.50;5060886;28;20195;-59
2022/09/06 11:02:54;;;;;;;0.40;0.40;;;;;;;31.47;26.36;95516.13;5056032;28;20216;-59
2022/09/06 11:06:16;;;;;;;0.67;0.60;;;;;;;32.11;25.85;95506.59;5045359;28;20827;-56
2022/09/06 11:09:10;;;;;;;0.43;0.43;;;;;;;31.94;25.38;95508.03;5063390;28;20199;-57
2022/09/06 11:11:51;;;;;;;0.47;0.47;;;;;;;32.46;25.94;95507.59;5048830;28;20189;-58
2022/09/06 11:14:22;;;;;;;0.70;0.70;;;;;;;31.78;23.49;95504.78;5030470;28;20284;-57
2022/09/06 11:17:06;;;;;;;0.30;0.30;;;;;;;31.56;24.10;95508.47;5030538;28;20308;-60
2022/09/06 11:20:09;;;;;;;0.77;0.67;;;;;;;31.93;24.52;95511.13;5027763;28;20189;-59
2022/09/06 11:23:05;;;;;;;0.30;0.30;;;;;;;31.52;24.82;95513.88;5033330;28;20227;-53
2022/09/06 11:25:47;;;;;;;0.20;0.20;;;;;;;32.00;23.97;95501.09;5027109;28;20416;-56
2022/09/06 11:28:28;;;;;;;0.50;0.50;;;;;;;32.31;23.75;95503.25;5034105;28;20209;-59
2022/09/06 11:30:56;;;;;;;0.40;0.40;;;;;;;32.47;23.21;95506.47;5033641;28;20197;-58
2022/09/06 11:33:27;;;;;;;0.47;0.47;;;;;;;32.09;23.53;95504.25;5033787;28;20197;-59
2022/09/06 11:36:27;;;;;;;0.20;0.20;;;;;;;31.96;23.25;95505.72;5030715;28;20201;-56
2022/09/06 11:38:57;;;;;;;1.50;0.77;;;;;;;32.04;22.65;95493.78;5033300;28;20597;-59
2022/09/06 11:41:31;;;;;;;0.30;0.30;;;;;;;32.27;22.53;95499.72;5034781;28;20208;-54
2022/09/06 11:43:58;;;;;;;0.40;0.40;;;;;;;32.11;22.30;95490.31;5033611;28;20233;-59
2022/09/06 11:46:34;;;;;;;0.20;0.20;;;;;;;32.03;23.48;95489.50;5030626;28;20652;-57
2022/09/06 11:49:01;;;;;;;0.40;0.40;;;;;;;32.21;23.44;95479.53;5034428;28;20189;-56
2022/09/06 11:51:40;;;;;;;0.47;0.47;;;;;;;32.59;23.31;95481.69;5030879;28;20197;-57
2022/09/06 11:54:39;;;;;;;0.60;0.60;;;;;;;32.79;23.31;95466.66;5046692;28;20662;-54
2022/09/06 11:57:14;;;;;;;0.50;0.50;;;;;;;32.69;23.23;95470.13;5038632;28;20204;-54
2022/09/06 11:59:41;;;;;;;0.40;0.40;;;;;;;32.68;23.45;95476.69;5051155;28;20280;-59